Terminal Aerodrome Forecast
Issued by NWS Jacksonville, FL

Home | Current Version | Previous Version | Text Only | Print | Product List | Glossary On
Versions: 1 2 3 4 5 6 7 8 9 10 11 12 13
646
FTUS42 KJAX 241120
TAFJAX
TAF
KJAX 241120Z 2412/2512 00000KT P6SM SCT090
     FM241600 10007KT P6SM FEW050 FEW250
     FM250200 VRB02KT P6SM FEW250=

USA.gov is the U.S. government's official web portal to all federal, state and local government web resources and services.